createdAt,value
2023-04-30T00:00:00.204Z,1003.42
2023-04-30T00:05:00.264Z,1003.44
2023-04-30T00:10:00.231Z,1003.51
2023-04-30T00:15:00.226Z,1003.52
2023-04-30T00:20:00.151Z,1003.59
2023-04-30T00:25:00.150Z,1003.75
2023-04-30T00:30:00.187Z,1003.7
2023-04-30T00:35:00.174Z,1003.74
2023-04-30T00:40:00.132Z,1003.75
2023-04-30T00:45:00.140Z,1003.8
2023-04-30T00:50:00.243Z,1003.92
2023-04-30T00:55:00.190Z,1003.99
2023-04-30T01:00:00.184Z,1004.02
2023-04-30T01:05:00.179Z,1003.93
2023-04-30T01:10:00.165Z,1004.06
2023-04-30T01:15:00.195Z,1004.08
2023-04-30T01:20:00.133Z,1004.09
2023-04-30T01:25:00.143Z,1004.14
2023-04-30T01:30:00.288Z,1004.11
2023-04-30T01:35:01.759Z,1004.16
2023-04-30T01:40:00.130Z,1004.19
2023-04-30T01:45:00.168Z,1004.28
2023-04-30T01:50:00.172Z,1004.48
2023-04-30T01:55:00.216Z,1004.42
2023-04-30T02:00:00.165Z,1004.51
2023-04-30T02:05:00.124Z,1004.51
2023-04-30T02:10:00.155Z,1004.62
2023-04-30T02:15:00.194Z,1004.67
2023-04-30T02:20:00.173Z,1004.69
2023-04-30T02:25:00.145Z,1004.84
2023-04-30T02:30:00.218Z,1004.76
2023-04-30T02:35:00.188Z,1004.88
2023-04-30T02:40:00.140Z,1004.83
2023-04-30T02:45:00.135Z,1004.85
2023-04-30T02:50:00.154Z,1004.9
2023-04-30T02:55:00.114Z,1004.91
2023-04-30T03:00:00.208Z,1004.99
2023-04-30T03:05:00.164Z,1005.06
2023-04-30T03:10:00.165Z,1005.06
2023-04-30T03:15:00.155Z,1005.09
2023-04-30T03:20:00.160Z,1005.11
2023-04-30T03:25:00.219Z,1005.1
2023-04-30T03:30:00.192Z,1004.5
2023-04-30T03:35:00.144Z,1004.65
2023-04-30T03:40:00.152Z,1004.69
2023-04-30T03:45:00.128Z,1004.64
2023-04-30T03:50:00.158Z,1004.73
2023-04-30T03:55:00.195Z,1004.79
2023-04-30T04:00:00.197Z,1004.81
2023-04-30T04:05:00.146Z,1004.85
2023-04-30T04:10:00.209Z,1004.83
2023-04-30T04:15:00.161Z,1004.86
2023-04-30T04:20:00.210Z,1004.95
2023-04-30T04:25:00.188Z,1005.03
2023-04-30T04:30:00.182Z,1005.27
2023-04-30T04:35:00.182Z,1005.21
2023-04-30T04:40:00.171Z,1005.28
2023-04-30T04:45:00.167Z,1005.36
2023-04-30T04:50:00.259Z,1005.19
2023-04-30T04:55:00.200Z,1005.29
2023-04-30T05:00:00.186Z,1005.41
2023-04-30T05:05:00.134Z,1005.36
2023-04-30T05:10:00.170Z,1005.49
2023-04-30T05:15:00.136Z,1005.56
2023-04-30T05:20:00.126Z,1005.58
2023-04-30T05:25:00.153Z,1005.64
2023-04-30T05:30:00.203Z,1005.73
2023-04-30T05:35:00.188Z,1005.74
2023-04-30T05:40:00.209Z,1005.78
2023-04-30T05:45:00.154Z,1005.8
2023-04-30T05:50:00.153Z,1005.94
2023-04-30T05:55:00.184Z,1005.98
2023-04-30T06:00:00.206Z,1005.95
2023-04-30T06:05:00.242Z,1005.91
2023-04-30T06:10:00.184Z,1005.95
2023-04-30T06:15:00.146Z,1005.89
2023-04-30T06:20:00.210Z,1006.04
2023-04-30T06:25:00.200Z,1006.01
2023-04-30T06:30:00.201Z,1006.07
2023-04-30T06:35:00.156Z,1005.99
2023-04-30T06:40:00.152Z,1006.03
2023-04-30T06:45:00.150Z,1006.05
2023-04-30T06:50:00.179Z,1006.04
2023-04-30T06:55:00.226Z,1006
2023-04-30T07:00:00.169Z,1006.11
2023-04-30T07:05:00.147Z,1006.25
2023-04-30T07:10:00.198Z,1006.25
2023-04-30T07:15:00.148Z,1006.13
2023-04-30T07:20:00.176Z,1006.08
2023-04-30T07:25:00.170Z,1006.2
2023-04-30T07:30:00.214Z,1006.17
2023-04-30T07:35:00.164Z,1006.22
2023-04-30T07:40:00.165Z,1006.33
2023-04-30T07:45:00.149Z,1006.3
2023-04-30T07:50:00.220Z,1006.33
2023-04-30T07:55:00.213Z,1006.28
2023-04-30T08:00:00.226Z,1006.28
2023-04-30T08:05:00.122Z,1006.32
2023-04-30T08:10:00.228Z,1006.31
2023-04-30T08:15:00.120Z,1006.35
2023-04-30T08:20:00.174Z,1006.29
2023-04-30T08:25:00.164Z,1006.45
2023-04-30T08:30:00.233Z,1006.48
2023-04-30T08:35:00.131Z,1006.44
2023-04-30T08:40:00.155Z,1006.25
2023-04-30T08:45:00.130Z,1006.38
2023-04-30T08:50:00.184Z,1006.33
2023-04-30T08:55:00.162Z,1006.3
2023-04-30T09:00:00.177Z,1006.2
2023-04-30T09:05:00.174Z,1006.18
2023-04-30T09:10:00.188Z,1006.18
2023-04-30T09:15:00.221Z,1006.3
2023-04-30T09:20:00.192Z,1006.23
2023-04-30T09:25:00.167Z,1006.24
2023-04-30T09:30:00.333Z,1006.1
2023-04-30T09:35:00.132Z,1006.24
2023-04-30T09:40:00.179Z,1006.14
2023-04-30T09:45:00.135Z,1006.18
2023-04-30T09:50:00.290Z,1006.09
2023-04-30T09:55:00.140Z,1006.13
2023-04-30T10:00:00.172Z,1006.13
2023-04-30T10:05:00.135Z,1006.19
2023-04-30T10:10:00.267Z,1006.11
2023-04-30T10:15:00.136Z,1006.18
2023-04-30T10:20:00.189Z,1006.15
2023-04-30T10:25:00.148Z,1006.07
2023-04-30T10:30:00.230Z,1005.95
2023-04-30T10:35:00.156Z,1006.02
2023-04-30T10:40:00.138Z,1005.99
2023-04-30T10:45:00.143Z,1005.79
2023-04-30T10:50:00.172Z,1005.81
2023-04-30T10:55:00.146Z,1005.75
2023-04-30T11:00:00.186Z,1005.74
2023-04-30T11:05:00.151Z,1005.74
2023-04-30T11:10:00.201Z,1005.73
2023-04-30T11:15:00.165Z,1005.73
2023-04-30T11:20:00.163Z,1005.63
2023-04-30T11:25:00.204Z,1005.62
2023-04-30T11:30:00.237Z,1005.59
2023-04-30T11:35:00.146Z,1005.54
2023-04-30T11:40:00.228Z,1005.43
2023-04-30T11:45:00.151Z,1005.35
2023-04-30T11:50:00.205Z,1005.35
2023-04-30T11:55:00.149Z,1005.41
2023-04-30T12:00:00.182Z,1005.34
2023-04-30T12:05:00.168Z,1005.34
2023-04-30T12:10:00.238Z,1005.11
2023-04-30T12:15:00.166Z,1005.23
2023-04-30T12:20:00.144Z,1005.16
2023-04-30T12:25:00.217Z,1005.29
2023-04-30T12:30:00.240Z,1005.29
2023-04-30T12:35:00.125Z,1005.17
2023-04-30T12:40:00.152Z,1005.18
2023-04-30T12:45:00.149Z,1005.32
2023-04-30T12:50:00.153Z,1005.25
2023-04-30T12:55:00.161Z,1005.11
2023-04-30T13:00:00.182Z,1005.05
2023-04-30T13:05:00.140Z,1005.07
2023-04-30T13:10:00.220Z,1005.02
2023-04-30T13:15:00.187Z,1005.06
2023-04-30T13:20:00.167Z,1004.94
2023-04-30T13:25:00.168Z,1004.88
2023-04-30T13:30:00.217Z,1004.88
2023-04-30T13:35:00.141Z,1004.88
2023-04-30T13:40:00.118Z,1004.85
2023-04-30T13:45:00.221Z,1005.32
2023-04-30T13:50:00.187Z,1005.25
2023-04-30T13:55:00.140Z,1005.21
2023-04-30T14:00:00.226Z,1005.13
2023-04-30T14:05:05.606Z,1005.13
2023-04-30T14:10:00.186Z,1005.09
2023-04-30T14:15:00.150Z,1005.09
2023-04-30T14:20:00.162Z,1005.16
2023-04-30T14:25:00.147Z,1005.06
2023-04-30T14:30:00.201Z,1005.04
2023-04-30T14:35:00.153Z,1004.96
2023-04-30T14:40:00.161Z,1004.88
2023-04-30T14:45:00.149Z,1004.8
2023-04-30T14:50:00.186Z,1004.84
2023-04-30T14:55:00.217Z,1004.76
2023-04-30T15:00:00.168Z,1004.77
2023-04-30T15:05:00.150Z,1004.77
2023-04-30T15:10:00.253Z,1004.76
2023-04-30T15:15:00.156Z,1004.68
2023-04-30T15:20:00.158Z,1004.69
2023-04-30T15:25:00.203Z,1004.64
2023-04-30T15:30:00.320Z,1004.69
2023-04-30T15:35:00.137Z,1004.64
2023-04-30T15:40:00.327Z,1004.49
2023-04-30T15:45:00.193Z,1004.61
2023-04-30T15:50:00.178Z,1004.55
2023-04-30T15:55:00.174Z,1004.64
2023-04-30T16:00:00.203Z,1004.55
2023-04-30T16:05:00.104Z,1004.54
2023-04-30T16:10:00.192Z,1004.49
2023-04-30T16:15:00.163Z,1004.47
2023-04-30T16:20:00.134Z,1004.52
2023-04-30T16:25:00.170Z,1004.49
2023-04-30T16:30:00.229Z,1004.42
2023-04-30T16:35:00.125Z,1004.34
2023-04-30T16:40:00.168Z,1004.37
2023-04-30T16:45:00.156Z,1004.28
2023-04-30T16:50:00.177Z,1004.34
2023-04-30T16:55:00.169Z,1004.29
2023-04-30T17:00:00.190Z,1004.25
2023-04-30T17:05:00.149Z,1004.24
2023-04-30T17:10:00.261Z,1004.2
2023-04-30T17:15:00.158Z,1004.23
2023-04-30T17:20:00.192Z,1004.13
2023-04-30T17:25:01.037Z,1004.02
2023-04-30T17:30:00.235Z,1004.09
2023-04-30T17:35:00.222Z,1004.13
2023-04-30T17:40:00.139Z,1004.05
2023-04-30T17:45:00.257Z,1004.11
2023-04-30T17:50:00.175Z,1004.08
2023-04-30T17:55:00.141Z,1004.11
2023-04-30T18:00:00.166Z,1004.13
2023-04-30T18:05:00.146Z,1004.14
2023-04-30T18:10:00.431Z,1004.18
2023-04-30T18:15:00.165Z,1004.1
2023-04-30T18:20:00.159Z,1004.15
2023-04-30T18:25:00.176Z,1004.11
2023-04-30T18:30:00.232Z,1004.13
2023-04-30T18:35:00.174Z,1004.11
2023-04-30T18:40:00.185Z,1004.18
2023-04-30T18:45:00.138Z,1004.13
2023-04-30T18:50:00.154Z,1004.09
2023-04-30T18:55:00.157Z,1004.17
2023-04-30T19:00:00.255Z,1004.11
2023-04-30T19:05:00.156Z,1004.2
2023-04-30T19:10:00.268Z,1003.78
2023-04-30T19:15:00.193Z,1003.79
2023-04-30T19:20:00.136Z,1003.75
2023-04-30T19:25:00.146Z,1003.82
2023-04-30T19:30:00.266Z,1003.91
2023-04-30T19:35:00.184Z,1003.93
2023-04-30T19:40:00.234Z,1003.82
2023-04-30T19:45:00.167Z,1003.78
2023-04-30T19:50:00.172Z,1003.77
2023-04-30T19:55:00.174Z,1003.76
2023-04-30T20:00:00.171Z,1003.77
2023-04-30T20:05:00.150Z,1003.87
2023-04-30T20:10:00.195Z,1003.78
2023-04-30T20:15:00.168Z,1003.8
2023-04-30T20:20:00.240Z,1003.78
2023-04-30T20:25:00.170Z,1003.73
2023-04-30T20:30:00.190Z,1004.21
2023-04-30T20:35:00.142Z,1004.31
2023-04-30T20:40:00.152Z,1004.25
2023-04-30T20:45:00.662Z,1004.21
2023-04-30T20:50:00.133Z,1004.24
2023-04-30T20:55:00.175Z,1004.2
2023-04-30T21:00:00.252Z,1004.11
2023-04-30T21:05:00.154Z,1004.05
2023-04-30T21:10:00.167Z,1004.05
2023-04-30T21:15:00.167Z,1004.02
2023-04-30T21:20:00.191Z,1003.98
2023-04-30T21:25:00.241Z,1003.9
2023-04-30T21:30:00.241Z,1003.92
2023-04-30T21:35:00.152Z,1003.92
2023-04-30T21:40:00.195Z,1003.89
2023-04-30T21:45:00.198Z,1003.8
2023-04-30T21:50:00.217Z,1003.75
2023-04-30T21:55:00.192Z,1003.78
2023-04-30T22:00:00.177Z,1003.74
2023-04-30T22:05:00.164Z,1003.68
2023-04-30T22:10:00.194Z,1003.68
2023-04-30T22:15:00.195Z,1003.78
2023-04-30T22:20:00.177Z,1003.85
2023-04-30T22:25:00.146Z,1003.79
2023-04-30T22:30:00.189Z,1003.81
2023-04-30T22:35:00.130Z,1003.79
2023-04-30T22:40:00.169Z,1003.73
2023-04-30T22:45:00.184Z,1003.74
2023-04-30T22:50:00.201Z,1003.77
2023-04-30T22:55:00.205Z,1003.71
2023-04-30T23:00:00.165Z,1003.66
2023-04-30T23:05:00.126Z,1003.77
2023-04-30T23:10:00.203Z,1003.79
2023-04-30T23:15:00.118Z,1003.74
2023-04-30T23:20:00.155Z,1003.79
2023-04-30T23:25:00.158Z,1003.77
2023-04-30T23:30:00.177Z,1003.71
2023-04-30T23:35:00.168Z,1003.71
2023-04-30T23:40:00.179Z,1003.77
2023-04-30T23:45:00.156Z,1003.7
2023-04-30T23:50:00.299Z,1003.63
2023-04-30T23:55:00.203Z,1003.63
